Forestville, Canada
Current Conditions -  °F | °C
As of 9:00 PM on Thursday 20 Nov 2014 (Local Time) from CYYY Reporting Station
Snow Showers Snow Showers  
Wind Chill: 13°   Ceiling: 2000
Heat Index: 25°   Visibility: 15mi
Dew Point: 18°   Wind: 13mph
Humidity: 74%   Direction: 210°SSW
Pressure: 29.62"   Gusts: NA
Location:  48.73°N, 69.07°W
Report Text: CYYY 210200Z 21011KT 15SM -SHSN BKN020 M04/M08 A2962 RMK SC7 SLP035
Loading
Personal Weather Stations






























Interactive Weather Map New forecast layout! Learn more

10-Day Weather Forecast

Advertisements
Track Severe Weather on mobile